大阪 天気 過去

動画

関連

注釈

  • 近畿 大阪府(大阪)の今日の天気、明日の天気や気温、降水量などの他、大阪府(大阪)の警報・注意報、週間天気予報をお届けします。 ... 風 北東の風やや強く海上では南の風強く 西の風海上でははじめ西の風やや強く

  • 過去の天気、気温、天気図や衛星画像などが見られます。過去数年分の情報を保持しています。 ... 1月 上旬は冬型の気圧配置となる日が多く、特に上旬はじめは強い寒気が南下し、ほぼ全国的に気温が低くなり、日本海側では大雪と ...

  • 日付 2月26日 (木) 2月27日 (金) 2月28日 (土) 3月1日 (日) 3月2日 (月) 3月3日 (火) 天気 曇時々雨 曇時々晴 曇時々晴 曇時々雨 曇時々晴 ... この地域の週間天気の気温は、最寄りの気温予測地点である「大阪」の値を表示しています。

  • 1961年〜の地上気象観測データを元に集計してます。 ※ のある地点は1967年からの観測データです。 天気 | 過去の天気 | 大阪の過去の天気 2015年2月

  • 全国の主要スポット900万件の電話番号・地図・住所を検索できるマピオン電話帳。大阪管区気象台 天気予報、警報・注意報等気象情報、現在・過去の気象データの照会、天気に関するお問い合わせ−天気相談所(大阪市/省庁・国の機関 ...

  • 天気で体を予報する健康予報!天気がわかると体もわかる。フジテレビの番組でも放送中! 大阪の天気予報を配信 tenki.jpの公式Twitterをご利用ください。天気、降水確率、最高最低気温を配信中

  • 過去15年分の天気を見ることができるよ!「キミの生まれた日の天気は?」など気になる日付の天気を地域単位で探してみよう。 北海道 観測ポイント 北海道 稚内 旭川 網走 札幌 釧路 室蘭 函館 東北 観測ポイント 青森 青森 秋田

  • 飛行場実況気象(Metar) 観測時間 02/23 19:00 JST (02/23 10:00 UTC) 風向・風速 西南西 3m/s 視程 10km以上 天気現象 雲 なし 気温 11 湿度 67% 気圧 1014hPa METAR RJOY 231000Z 25006KT CAVOK 11/05 Q1014 過去の天気 ...

Back to Top